Time;durP1;ratioP1;P1;durP2;ratioP2;P2;SDS_P1;SDS_P2;PMS_P1;PMS_P2;Temp;Humidity;BMP_temperature;BMP_pressure;BME280_temperature;BME280_humidity;BME280_pressure;Samples;Min_cycle;Max_cycle;Signal;HPM_P1;HPM_P2
2023/12/16 00:00:51;;;;;;;38.92;15.57;;;3.00;99.90;;;;;;5033425;28;20029;-70
2023/12/16 00:03:17;;;;;;;31.92;15.13;;;3.00;99.90;;;;;;5036046;28;20057;-70
2023/12/16 00:05:42;;;;;;;30.65;14.77;;;2.90;99.90;;;;;;5037170;28;20071;-70
2023/12/16 00:08:08;;;;;;;35.33;15.95;;;2.90;99.90;;;;;;5033606;28;20029;-70
2023/12/16 00:10:34;;;;;;;35.63;15.70;;;2.90;99.90;;;;;;5042383;28;20100;-70
2023/12/16 00:12:59;;;;;;;29.97;13.97;;;2.80;99.90;;;;;;5038391;28;20061;-70
2023/12/16 00:15:25;;;;;;;31.67;14.57;;;2.80;99.90;;;;;;5044537;28;20017;-71
2023/12/16 00:17:50;;;;;;;30.20;15.67;;;2.80;99.90;;;;;;5035743;28;20432;-70
2023/12/16 00:20:16;;;;;;;40.00;16.70;;;2.80;99.90;;;;;;5039254;28;20104;-70
2023/12/16 00:22:42;;;;;;;35.17;16.77;;;2.80;99.90;;;;;;5045609;28;20025;-70
2023/12/16 00:25:08;;;;;;;33.90;15.63;;;2.70;99.90;;;;;;5038729;28;20413;-70
2023/12/16 00:27:35;;;;;;;33.72;14.57;;;2.70;99.90;;;;;;5043997;28;20040;-71
2023/12/16 00:30:01;;;;;;;30.35;14.75;;;2.70;99.90;;;;;;5038885;28;20587;-71
2023/12/16 00:32:27;;;;;;;;;;;2.70;99.90;;;;;;5044829;28;20078;-71
2023/12/16 00:34:53;;;;;;;28.88;14.27;;;2.70;99.90;;;;;;5036794;28;20383;-71
2023/12/16 00:37:18;;;;;;;31.03;14.80;;;2.80;99.90;;;;;;5042001;28;20044;-70
2023/12/16 00:39:44;;;;;;;29.40;13.97;;;2.80;99.90;;;;;;5041271;28;20550;-70
2023/12/16 00:42:09;;;;;;;35.90;16.37;;;2.70;99.90;;;;;;5037111;28;20136;-70
2023/12/16 00:44:36;;;;;;;34.97;16.73;;;2.70;99.90;;;;;;5042301;28;20350;-70
2023/12/16 00:47:01;;;;;;;34.08;16.23;;;2.70;99.90;;;;;;5043151;28;20116;-70
2023/12/16 00:49:28;;;;;;;35.70;15.63;;;2.70;99.90;;;;;;5040559;28;20112;-70
2023/12/16 00:51:56;;;;;;;36.17;14.75;;;2.70;99.90;;;;;;5042538;28;20039;-70
2023/12/16 00:54:22;;;;;;;30.83;15.20;;;2.80;99.90;;;;;;5039604;28;20022;-70
2023/12/16 00:56:48;;;;;;;24.23;13.07;;;2.80;99.90;;;;;;5040417;28;20124;-70
2023/12/16 00:59:13;;;;;;;27.00;13.82;;;2.80;99.90;;;;;;5034888;28;20560;-69
2023/12/16 01:01:39;;;;;;;26.45;13.85;;;2.80;99.90;;;;;;5044830;28;20032;-70
2023/12/16 01:04:05;;;;;;;29.60;14.50;;;2.80;99.90;;;;;;5041887;28;20405;-70
2023/12/16 01:06:31;;;;;;;34.13;14.40;;;2.80;99.90;;;;;;5043378;28;20029;-70
2023/12/16 01:08:56;;;;;;;28.53;14.47;;;2.80;99.90;;;;;;5037473;28;20056;-70
2023/12/16 01:11:22;;;;;;;24.17;13.60;;;2.70;99.90;;;;;;5044765;28;20029;-70
2023/12/16 01:13:47;;;;;;;29.53;13.97;;;2.60;99.90;;;;;;5042359;28;20036;-70
2023/12/16 01:16:13;;;;;;;34.20;14.40;;;2.70;99.90;;;;;;5035926;28;20030;-70
2023/12/16 01:18:39;;;;;;;33.70;13.47;;;2.80;99.90;;;;;;5047269;28;20021;-70
2023/12/16 01:21:08;;;;;;;29.20;14.60;;;3.00;99.90;;;;;;5042979;28;20033;-70
2023/12/16 01:23:34;;;;;;;28.92;13.45;;;3.00;99.90;;;;;;5042249;28;20516;-70
2023/12/16 01:26:00;;;;;;;29.15;14.05;;;3.10;99.90;;;;;;5036763;28;20033;-70
2023/12/16 01:28:25;;;;;;;26.33;13.33;;;3.20;99.90;;;;;;5040364;28;20025;-70
2023/12/16 01:30:51;;;;;;;28.30;12.90;;;3.20;99.90;;;;;;5035257;28;20025;-70
2023/12/16 01:33:17;;;;;;;25.08;13.25;;;3.10;99.90;;;;;;5046556;28;20374;-70
2023/12/16 01:35:42;;;;;;;31.70;14.63;;;3.20;99.90;;;;;;5038074;28;20041;-70
2023/12/16 01:38:08;;;;;;;25.83;13.17;;;3.40;99.90;;;;;;5039450;28;20340;-70
2023/12/16 01:40:33;;;;;;;30.37;12.33;;;3.40;99.90;;;;;;5040565;28;20040;-70
2023/12/16 01:43:03;;;;;;;27.33;13.50;;;3.50;99.90;;;;;;5041363;28;20172;-70
2023/12/16 01:45:29;;;;;;;25.25;13.00;;;3.50;99.90;;;;;;5038693;28;20725;-70
2023/12/16 01:47:55;;;;;;;25.27;12.83;;;3.40;99.90;;;;;;5035822;28;20033;-70
2023/12/16 01:50:21;;;;;;;27.58;12.93;;;3.50;99.90;;;;;;5029830;28;20037;-70
2023/12/16 01:52:47;;;;;;;28.23;13.23;;;3.60;99.90;;;;;;5038845;28;20037;-70
2023/12/16 01:55:14;;;;;;;25.73;13.15;;;3.50;99.90;;;;;;5038711;28;20030;-69
2023/12/16 01:57:41;;;;;;;25.30;13.30;;;3.50;99.90;;;;;;5041515;28;20036;-71
2023/12/16 02:00:07;;;;;;;27.50;12.55;;;3.60;99.90;;;;;;5046191;28;20031;-70
2023/12/16 02:02:34;;;;;;;25.08;13.52;;;3.70;99.90;;;;;;5038151;28;20404;-70
2023/12/16 02:04:59;;;;;;;24.65;13.43;;;3.70;99.90;;;;;;5040103;28;20037;-70
2023/12/16 02:07:25;;;;;;;25.00;13.00;;;3.70;99.90;;;;;;5042561;28;20519;-70
2023/12/16 02:09:51;;;;;;;31.73;13.73;;;3.70;99.90;;;;;;5046204;28;20029;-70
2023/12/16 02:12:19;;;;;;;27.53;13.60;;;3.80;99.90;;;;;;5046653;28;20071;-70
2023/12/16 02:14:45;;;;;;;23.17;12.63;;;3.80;99.90;;;;;;5046961;28;20033;-70
2023/12/16 02:17:11;;;;;;;25.38;14.05;;;3.80;99.90;;;;;;5046709;28;20029;-71
2023/12/16 02:19:37;;;;;;;32.95;14.57;;;3.80;99.90;;;;;;5047023;28;20053;-70
2023/12/16 02:22:03;;;;;;;26.80;14.25;;;3.80;99.90;;;;;;5046746;28;20041;-70
2023/12/16 02:24:31;;;;;;;31.67;14.90;;;3.80;99.90;;;;;;5046585;28;20032;-71
2023/12/16 02:26:57;;;;;;;32.22;14.70;;;3.80;99.90;;;;;;5049378;28;20275;-71
2023/12/16 02:29:22;;;;;;;33.97;15.50;;;3.90;99.90;;;;;;5045580;28;20037;-70
2023/12/16 02:31:48;;;;;;;29.57;15.37;;;3.90;99.90;;;;;;5046492;28;20511;-70
2023/12/16 02:34:13;;;;;;;25.20;13.77;;;4.00;99.90;;;;;;5046662;28;20351;-71
2023/12/16 02:36:39;;;;;;;27.50;14.10;;;4.00;99.90;;;;;;5046859;28;20029;-70
2023/12/16 02:39:05;;;;;;;43.60;15.45;;;4.00;99.90;;;;;;5046858;28;20040;-70
2023/12/16 02:41:30;;;;;;;27.73;13.07;;;4.10;99.90;;;;;;5046532;28;20033;-70
2023/12/16 02:43:56;;;;;;;29.53;14.00;;;4.20;99.90;;;;;;5047234;28;20437;-70
2023/12/16 02:46:22;;;;;;;26.80;14.50;;;4.20;99.90;;;;;;5066687;28;20105;-70
2023/12/16 02:48:47;;;;;;;30.15;13.70;;;4.20;99.90;;;;;;5070059;28;20021;-70
2023/12/16 02:51:19;;;;;;;28.00;14.87;;;4.20;99.90;;;;;;5069913;28;20035;-70
2023/12/16 02:53:45;;;;;;;33.17;14.23;;;4.20;99.90;;;;;;5069869;28;20032;-70
2023/12/16 02:56:11;;;;;;;25.50;13.13;;;4.20;99.90;;;;;;5069381;28;20450;-70
2023/12/16 02:58:37;;;;;;;25.00;12.27;;;4.20;99.90;;;;;;5070214;28;20225;-70
2023/12/16 03:01:03;;;;;;;26.27;13.80;;;4.10;99.90;;;;;;5069769;28;20063;-70
2023/12/16 03:03:28;;;;;;;26.08;13.15;;;4.30;99.90;;;;;;5070285;28;20041;-70
2023/12/16 03:05:54;;;;;;;27.97;13.43;;;4.30;99.90;;;;;;5070172;28;20032;-70
2023/12/16 03:08:19;;;;;;;24.73;12.80;;;4.30;99.90;;;;;;5069974;28;20027;-70
2023/12/16 03:10:45;;;;;;;26.20;12.63;;;4.30;99.90;;;;;;5068235;28;20557;-69
2023/12/16 03:13:11;;;;;;;24.97;13.33;;;4.30;99.90;;;;;;5049178;28;20035;-70
2023/12/16 03:15:36;;;;;;;25.77;12.53;;;4.20;99.90;;;;;;5049149;28;20047;-70
2023/12/16 03:18:02;;;;;;;22.33;12.47;;;4.20;99.90;;;;;;5049018;28;20017;-70
2023/12/16 03:20:27;;;;;;;30.63;13.17;;;4.10;99.90;;;;;;5049295;28;20024;-70
2023/12/16 03:22:53;;;;;;;23.53;13.73;;;4.00;99.90;;;;;;5049265;28;20255;-70
2023/12/16 03:25:19;;;;;;;30.40;14.20;;;3.90;99.90;;;;;;5048495;28;20024;-70
2023/12/16 03:27:45;;;;;;;22.95;12.52;;;3.90;99.90;;;;;;5048656;28;20033;-70
2023/12/16 03:30:11;;;;;;;21.98;12.20;;;3.90;99.90;;;;;;5049273;28;20047;-70
2023/12/16 03:32:37;;;;;;;24.85;12.55;;;3.90;99.90;;;;;;5049605;28;20051;-70
2023/12/16 03:35:02;;;;;;;29.67;12.20;;;4.00;99.90;;;;;;5048969;28;20036;-71
2023/12/16 03:37:28;;;;;;;20.67;11.13;;;4.00;99.90;;;;;;5049138;28;20071;-70
2023/12/16 03:39:54;;;;;;;23.07;11.03;;;4.10;99.90;;;;;;5048872;28;20041;-70
2023/12/16 03:42:19;;;;;;;21.60;11.00;;;4.10;99.90;;;;;;5048921;28;20040;-70
2023/12/16 03:44:46;;;;;;;26.38;12.20;;;4.20;99.90;;;;;;5049200;28;20032;-69
2023/12/16 03:47:13;;;;;;;26.30;12.18;;;4.30;99.90;;;;;;5049030;28;20033;-70
2023/12/16 03:49:39;;;;;;;;;;;4.30;99.90;;;;;;5049790;28;20095;-70
2023/12/16 03:52:05;;;;;;;20.60;9.88;;;4.30;99.90;;;;;;5048791;28;19932;-70
2023/12/16 03:54:31;;;;;;;20.70;10.75;;;4.30;99.90;;;;;;5048849;28;20273;-70
2023/12/16 03:56:57;;;;;;;21.17;10.70;;;4.40;99.90;;;;;;5046578;28;20420;-70
2023/12/16 03:59:22;;;;;;;18.52;10.10;;;4.40;99.90;;;;;;5048722;28;20017;-70
2023/12/16 04:01:48;;;;;;;19.57;10.17;;;4.40;99.90;;;;;;5048428;28;20416;-70
2023/12/16 04:04:14;;;;;;;25.50;11.13;;;4.50;99.90;;;;;;5048567;28;20033;-70
2023/12/16 04:06:39;;;;;;;23.02;10.35;;;4.40;99.90;;;;;;5048813;28;20025;-70
2023/12/16 04:09:05;;;;;;;22.27;10.47;;;4.40;99.90;;;;;;5048570;28;20107;-71
2023/12/16 04:11:30;;;;;;;20.93;9.73;;;4.50;99.90;;;;;;5048745;28;20684;-70
2023/12/16 04:13:56;;;;;;;20.93;11.10;;;4.50;99.90;;;;;;5048915;28;20075;-71
2023/12/16 04:16:22;;;;;;;15.67;8.73;;;4.50;99.90;;;;;;5037367;28;20033;-70
2023/12/16 04:18:47;;;;;;;17.53;10.17;;;4.50;99.90;;;;;;5028288;28;20102;-70
2023/12/16 04:21:13;;;;;;;21.10;10.33;;;4.60;99.90;;;;;;5027712;28;20033;-70
2023/12/16 04:23:39;;;;;;;25.10;10.60;;;4.60;99.90;;;;;;5028734;28;20040;-71
2023/12/16 04:26:04;;;;;;;20.58;10.82;;;4.60;99.90;;;;;;5028492;28;20025;-71
2023/12/16 04:28:30;;;;;;;19.10;10.30;;;4.60;99.90;;;;;;5028217;28;20033;-71
2023/12/16 04:30:55;;;;;;;21.70;10.90;;;4.70;99.90;;;;;;5028204;28;20625;-71
2023/12/16 04:33:21;;;;;;;23.47;10.23;;;4.60;99.90;;;;;;5028438;28;20029;-71
2023/12/16 04:35:47;;;;;;;23.97;10.03;;;4.70;99.90;;;;;;5028086;28;20046;-71
2023/12/16 04:38:12;;;;;;;24.08;9.98;;;4.70;99.90;;;;;;5028264;28;20029;-71
2023/12/16 04:40:38;;;;;;;22.73;9.40;;;4.70;99.90;;;;;;5028109;28;20041;-71
2023/12/16 04:43:04;;;;;;;22.95;10.43;;;4.70;99.90;;;;;;5067739;28;20028;-70
2023/12/16 04:45:30;;;;;;;26.37;9.90;;;4.70;99.90;;;;;;5068148;28;20040;-70
2023/12/16 04:47:55;;;;;;;18.17;9.73;;;4.70;99.90;;;;;;5068324;28;20107;-69
2023/12/16 04:50:21;;;;;;;17.90;10.13;;;4.70;99.90;;;;;;5067774;28;20082;-70
2023/12/16 04:52:47;;;;;;;22.00;9.77;;;4.60;99.90;;;;;;5067724;28;20025;-70
2023/12/16 04:55:12;;;;;;;18.30;9.90;;;4.70;99.90;;;;;;5067670;28;20028;-70
2023/12/16 04:57:38;;;;;;;19.65;9.98;;;4.80;99.90;;;;;;5068100;28;20535;-70
2023/12/16 05:00:04;;;;;;;17.40;10.27;;;4.70;99.90;;;;;;5067503;28;20381;-70
2023/12/16 05:02:30;;;;;;;18.38;9.68;;;4.80;99.90;;;;;;5067271;28;20282;-70
2023/12/16 05:04:56;;;;;;;19.30;9.32;;;4.80;99.90;;;;;;5050503;28;20064;-70
2023/12/16 05:07:21;;;;;;;18.93;9.27;;;4.80;99.90;;;;;;5034246;28;20534;-70
2023/12/16 05:09:47;;;;;;;20.40;10.27;;;4.80;99.90;;;;;;5046840;28;20048;-70
2023/12/16 05:12:13;;;;;;;20.67;9.27;;;4.80;99.90;;;;;;5047351;28;20456;-71
2023/12/16 05:14:41;;;;;;;20.37;9.13;;;4.80;99.90;;;;;;5031872;28;20482;-69
2023/12/16 05:17:07;;;;;;;19.85;10.52;;;4.80;99.90;;;;;;5027152;28;20140;-70
2023/12/16 05:19:33;;;;;;;18.63;10.38;;;4.80;99.90;;;;;;5045675;28;20116;-69
2023/12/16 05:21:58;;;;;;;19.40;9.53;;;4.80;99.90;;;;;;5047254;28;20040;-70
2023/12/16 05:24:24;;;;;;;21.33;10.43;;;4.80;99.90;;;;;;5047410;28;20063;-70
2023/12/16 05:26:50;;;;;;;20.07;9.97;;;4.80;99.90;;;;;;5047256;28;20059;-69
2023/12/16 05:29:16;;;;;;;17.27;9.95;;;4.80;99.90;;;;;;5047171;28;20035;-70
2023/12/16 05:31:41;;;;;;;20.03;9.67;;;4.80;99.90;;;;;;5047441;28;20033;-70
2023/12/16 05:34:07;;;;;;;16.07;9.47;;;4.80;99.90;;;;;;5047494;28;20448;-69
2023/12/16 05:36:32;;;;;;;20.70;9.50;;;4.80;99.90;;;;;;5047061;28;20029;-70
2023/12/16 05:38:58;;;;;;;21.40;10.13;;;4.80;99.90;;;;;;5046520;28;20075;-70
2023/12/16 05:41:24;;;;;;;20.43;9.77;;;4.80;99.90;;;;;;5046604;28;20749;-70
2023/12/16 05:43:49;;;;;;;14.53;8.40;;;4.80;99.90;;;;;;5046802;28;20028;-70
2023/12/16 05:46:15;;;;;;;14.97;8.80;;;4.80;99.90;;;;;;5046947;28;20033;-70
2023/12/16 05:48:40;;;;;;;16.43;8.90;;;4.80;99.90;;;;;;5047712;28;20095;-70
2023/12/16 05:51:06;;;;;;;18.43;10.13;;;4.80;99.90;;;;;;5047167;28;20535;-70
2023/12/16 05:53:34;;;;;;;14.70;7.82;;;4.80;99.90;;;;;;5047440;28;20032;-70
2023/12/16 05:55:59;;;;;;;21.70;9.57;;;4.80;99.90;;;;;;5046784;28;20128;-70
2023/12/16 05:58:25;;;;;;;13.43;7.40;;;4.80;99.90;;;;;;5046872;28;20120;-70
2023/12/16 06:00:51;;;;;;;17.27;7.57;;;4.80;99.90;;;;;;5046789;28;20071;-70
2023/12/16 06:03:16;;;;;;;13.53;8.57;;;4.80;99.90;;;;;;5046970;28;20492;-70
2023/12/16 06:05:42;;;;;;;16.33;8.97;;;4.80;99.90;;;;;;5047346;28;20028;-70
2023/12/16 06:08:07;;;;;;;16.73;8.83;;;4.80;99.90;;;;;;5046889;28;20033;-70
2023/12/16 06:10:33;;;;;;;15.23;8.20;;;4.80;99.90;;;;;;5047054;28;20047;-70
2023/12/16 06:12:58;;;;;;;16.63;8.03;;;4.80;99.90;;;;;;5046912;28;20028;-70
2023/12/16 06:15:25;;;;;;;16.00;9.00;;;4.80;99.90;;;;;;5046612;28;20037;-69
2023/12/16 06:17:50;;;;;;;15.27;8.68;;;4.80;99.90;;;;;;5046861;28;20094;-70
2023/12/16 06:20:16;;;;;;;19.13;9.27;;;4.80;99.90;;;;;;5046842;28;20431;-70
2023/12/16 06:22:42;;;;;;;18.10;9.38;;;4.70;99.90;;;;;;5051145;28;20086;-70
2023/12/16 06:25:08;;;;;;;13.63;7.40;;;4.70;99.90;;;;;;5050719;28;20723;-72
2023/12/16 06:27:33;;;;;;;16.42;8.50;;;4.70;99.90;;;;;;5040682;28;20029;-70
2023/12/16 06:29:59;;;;;;;14.18;7.80;;;4.70;99.90;;;;;;5043335;28;20166;-70
2023/12/16 06:32:25;;;;;;;17.27;9.17;;;4.60;99.90;;;;;;5039672;28;20485;-70
2023/12/16 06:34:50;;;;;;;17.03;8.80;;;4.60;99.90;;;;;;5038966;28;20037;-70
2023/12/16 06:37:16;;;;;;;12.33;7.87;;;4.60;99.90;;;;;;5031879;28;20635;-70
2023/12/16 06:39:41;;;;;;;20.13;8.90;;;4.70;99.90;;;;;;5041535;28;20594;-70
2023/12/16 06:42:07;;;;;;;13.40;8.13;;;4.70;99.90;;;;;;5040636;28;20045;-70
2023/12/16 06:44:33;;;;;;;17.77;8.87;;;4.70;99.90;;;;;;5043330;28;20409;-70
2023/12/16 06:46:59;;;;;;;17.13;8.65;;;4.70;99.90;;;;;;5051892;28;20299;-69
2023/12/16 06:49:25;;;;;;;13.20;8.20;;;4.70;99.90;;;;;;5048343;28;20106;-69
2023/12/16 06:51:51;;;;;;;16.13;7.37;;;4.70;99.90;;;;;;5037372;28;20032;-69
2023/12/16 06:54:16;;;;;;;14.13;7.20;;;4.70;99.90;;;;;;5043666;28;20086;-69
2023/12/16 06:56:42;;;;;;;18.63;8.73;;;4.70;99.90;;;;;;5051326;28;20117;-69
2023/12/16 06:59:07;;;;;;;19.33;8.60;;;4.70;99.90;;;;;;5037308;28;20105;-69
2023/12/16 07:01:33;;;;;;;14.73;8.35;;;4.70;99.90;;;;;;5037830;28;20064;-69
2023/12/16 07:03:59;;;;;;;18.00;9.10;;;4.70;99.90;;;;;;5049843;28;20033;-69
2023/12/16 07:06:24;;;;;;;17.73;8.43;;;4.70;99.90;;;;;;5039725;28;20473;-70
2023/12/16 07:08:50;;;;;;;14.97;8.60;;;4.70;99.90;;;;;;5047012;28;20473;-69
2023/12/16 07:11:16;;;;;;;20.57;9.03;;;4.70;99.90;;;;;;5038673;28;20104;-69
2023/12/16 07:13:42;;;;;;;19.33;9.35;;;4.70;99.90;;;;;;5040206;28;20025;-69
2023/12/16 07:16:09;;;;;;;33.73;10.83;;;4.70;99.90;;;;;;5054972;28;20066;-69
2023/12/16 07:18:35;;;;;;;14.80;8.13;;;4.70;99.90;;;;;;5039701;28;20712;-69
2023/12/16 07:21:05;;;;;;;17.63;7.97;;;4.70;99.90;;;;;;5038332;28;20045;-69
2023/12/16 07:23:33;;;;;;;15.95;8.38;;;4.60;99.90;;;;;;5038448;28;20120;-69
2023/12/16 07:26:00;;;;;;;13.57;8.05;;;4.70;99.90;;;;;;5041218;28;20043;-69
2023/12/16 07:28:26;;;;;;;16.08;7.88;;;4.70;99.90;;;;;;5044459;28;20060;-69
2023/12/16 07:30:52;;;;;;;15.07;7.88;;;4.60;99.90;;;;;;5038908;28;20120;-69
2023/12/16 07:33:17;;;;;;;17.50;8.43;;;4.70;99.90;;;;;;5037730;28;20408;-69
2023/12/16 07:35:44;;;;;;;17.47;8.20;;;4.70;99.90;;;;;;5044168;28;20025;-70
2023/12/16 07:38:09;;;;;;;;;;;4.70;99.90;;;;;;5033879;28;20386;-70
2023/12/16 07:40:36;;;;;;;13.35;7.32;;;4.70;99.90;;;;;;5039740;28;19996;-69
2023/12/16 07:43:02;;;;;;;13.10;8.18;;;4.80;99.90;;;;;;5043220;28;20048;-69
2023/12/16 07:45:27;;;;;;;15.20;8.30;;;4.80;99.90;;;;;;5042735;28;20099;-70
2023/12/16 07:47:53;;;;;;;15.37;7.37;;;4.90;99.90;;;;;;5045781;28;20037;-69
2023/12/16 07:50:20;;;;;;;16.00;8.90;;;4.90;99.90;;;;;;5043633;28;20100;-69
2023/12/16 07:52:46;;;;;;;16.15;9.00;;;4.90;99.90;;;;;;5046935;28;20029;-70
2023/12/16 07:55:12;;;;;;;12.10;7.40;;;4.90;99.90;;;;;;5043465;28;20043;-70
2023/12/16 07:57:38;;;;;;;18.25;7.35;;;5.00;99.90;;;;;;5043945;28;20033;-70
2023/12/16 08:00:04;;;;;;;15.68;7.75;;;5.00;99.90;;;;;;5037540;28;20025;-70
2023/12/16 08:02:33;;;;;;;13.02;8.10;;;5.00;99.90;;;;;;5041437;28;20051;-71
2023/12/16 08:04:58;;;;;;;14.55;7.93;;;5.10;99.90;;;;;;5037992;28;20033;-70
2023/12/16 08:07:24;;;;;;;16.93;7.93;;;5.00;99.90;;;;;;5037289;28;20512;-70
2023/12/16 08:09:50;;;;;;;19.67;7.40;;;5.10;99.90;;;;;;5040049;28;20025;-71
2023/12/16 08:12:15;;;;;;;15.33;8.30;;;5.10;99.90;;;;;;5036944;28;20037;-71
2023/12/16 08:14:41;;;;;;;14.20;8.50;;;5.20;99.90;;;;;;5038001;28;20036;-70
2023/12/16 08:17:06;;;;;;;17.70;8.20;;;5.20;99.90;;;;;;5038576;28;20064;-70
2023/12/16 08:19:32;;;;;;;16.53;7.53;;;5.20;99.90;;;;;;5034906;28;20433;-70
2023/12/16 08:22:02;;;;;;;19.50;7.55;;;5.30;99.90;;;;;;5038654;28;20029;-70
2023/12/16 08:24:29;;;;;;;14.48;7.07;;;5.30;99.90;;;;;;5041602;28;20040;-70
2023/12/16 08:26:55;;;;;;;15.77;7.75;;;5.30;99.90;;;;;;5047616;28;20033;-70
2023/12/16 08:29:20;;;;;;;21.75;7.85;;;5.30;99.90;;;;;;5044941;28;20040;-71
2023/12/16 08:31:46;;;;;;;15.10;7.67;;;5.30;99.90;;;;;;5037992;28;20541;-70
2023/12/16 08:34:12;;;;;;;19.10;8.73;;;5.40;99.90;;;;;;5038046;28;20071;-70
2023/12/16 08:36:39;;;;;;;12.82;7.97;;;5.40;99.90;;;;;;5033378;28;20049;-70
2023/12/16 08:39:04;;;;;;;17.55;8.70;;;5.30;99.90;;;;;;5032916;28;20017;-70
2023/12/16 08:41:30;;;;;;;17.03;8.80;;;5.40;99.90;;;;;;5041509;28;20519;-71
2023/12/16 08:43:55;;;;;;;13.13;7.50;;;5.40;99.90;;;;;;5040541;28;20036;-70
2023/12/16 08:46:23;;;;;;;15.27;8.30;;;5.40;99.90;;;;;;5033871;28;20041;-71
2023/12/16 08:48:49;;;;;;;16.98;8.65;;;5.40;99.90;;;;;;5046804;28;20036;-70
2023/12/16 08:51:24;;;;;;;15.60;8.57;;;5.40;99.90;;;;;;5043036;28;20622;-71
2023/12/16 08:53:50;;;;;;;12.68;7.93;;;5.50;99.90;;;;;;5039110;28;20033;-72
2023/12/16 08:56:17;;;;;;;;;;;5.50;99.90;;;;;;5044591;28;20044;-70
2023/12/16 08:58:46;;;;;;;14.50;9.05;;;5.50;99.90;;;;;;5042569;28;19912;-69
2023/12/16 09:01:12;;;;;;;14.00;8.57;;;5.40;99.90;;;;;;5043786;28;20041;-69
2023/12/16 09:03:41;;;;;;;18.67;10.00;;;5.40;99.90;;;;;;5044205;28;20045;-68
2023/12/16 09:06:07;;;;;;;16.90;8.77;;;5.40;99.90;;;;;;5057254;28;20032;-68
2023/12/16 09:08:33;;;;;;;19.10;9.07;;;5.30;99.90;;;;;;5033382;28;20226;-68
2023/12/16 09:10:58;;;;;;;12.07;7.63;;;5.30;99.90;;;;;;5035254;28;20676;-71
2023/12/16 09:13:24;;;;;;;15.23;8.40;;;5.40;99.90;;;;;;5046721;28;20079;-68
2023/12/16 09:15:49;;;;;;;16.37;7.87;;;5.40;99.90;;;;;;5044288;28;20059;-72
2023/12/16 09:18:15;;;;;;;11.93;7.53;;;5.50;99.90;;;;;;5042027;28;20028;-71
2023/12/16 09:20:41;;;;;;;18.63;8.37;;;5.50;99.90;;;;;;5042965;28;20465;-71
2023/12/16 09:23:06;;;;;;;17.63;8.30;;;5.50;99.90;;;;;;5041556;28;20033;-71
2023/12/16 09:25:32;;;;;;;12.83;8.40;;;5.50;99.90;;;;;;5041076;28;20039;-71
2023/12/16 09:27:58;;;;;;;17.05;8.13;;;5.50;99.90;;;;;;5040688;28;20429;-72
2023/12/16 09:30:23;;;;;;;13.30;7.93;;;5.50;99.90;;;;;;5044300;28;20045;-71
2023/12/16 09:32:49;;;;;;;15.27;8.83;;;5.50;99.90;;;;;;5039114;28;20040;-71
2023/12/16 09:35:14;;;;;;;16.27;8.77;;;5.50;99.90;;;;;;5036312;28;20104;-71
2023/12/16 09:37:40;;;;;;;13.75;8.00;;;5.50;99.90;;;;;;5041065;28;20044;-70
2023/12/16 09:40:07;;;;;;;12.33;7.03;;;5.60;99.90;;;;;;5042579;28;20041;-70
2023/12/16 09:42:36;;;;;;;13.02;7.38;;;5.60;99.90;;;;;;5050362;28;20029;-70
2023/12/16 09:45:02;;;;;;;14.50;8.27;;;5.60;99.90;;;;;;5039074;28;20423;-71
2023/12/16 09:47:28;;;;;;;14.98;7.63;;;5.60;99.90;;;;;;5043451;28;20030;-70
2023/12/16 09:50:00;;;;;;;11.77;6.87;;;5.70;99.90;;;;;;5049439;28;20037;-70
2023/12/16 09:52:28;;;;;;;12.93;7.22;;;5.70;99.90;;;;;;5041973;28;20404;-70
2023/12/16 09:54:54;;;;;;;10.18;6.65;;;5.80;99.90;;;;;;5041124;28;20035;-70
2023/12/16 09:57:22;;;;;;;15.30;7.30;;;5.80;99.90;;;;;;5043933;28;20029;-71
2023/12/16 09:59:48;;;;;;;12.95;7.25;;;5.90;99.90;;;;;;5041005;28;20452;-71
2023/12/16 10:02:45;;;;;;;11.40;7.05;;;5.90;99.90;;;;;;5042145;28;20051;-70
2023/12/16 10:05:11;;;;;;;17.08;6.85;;;5.90;99.90;;;;;;5044078;28;20026;-70
2023/12/16 10:07:37;;;;;;;12.88;7.05;;;5.90;99.90;;;;;;5050398;28;20489;-72
2023/12/16 10:10:04;;;;;;;15.87;7.53;;;5.90;99.90;;;;;;5047226;28;20059;-72
2023/12/16 10:12:33;;;;;;;14.93;7.70;;;5.90;99.90;;;;;;5058725;28;20025;-73
2023/12/16 10:14:59;;;;;;;13.38;7.10;;;5.90;99.90;;;;;;5042659;28;20112;-71
2023/12/16 10:17:25;;;;;;;11.70;6.80;;;5.90;99.90;;;;;;5045064;28;20442;-71
2023/12/16 10:19:51;;;;;;;;;;;5.90;99.90;;;;;;5047655;28;20033;-70
2023/12/16 10:22:18;;;;;;;11.15;6.40;;;6.00;99.90;;;;;;5043230;28;20358;-71
2023/12/16 10:24:44;;;;;;;15.07;6.82;;;6.10;99.90;;;;;;5048453;28;20028;-73
2023/12/16 10:27:11;;;;;;;9.38;6.05;;;6.10;99.90;;;;;;5046041;28;20090;-71
2023/12/16 10:29:40;;;;;;;12.77;6.50;;;6.20;99.90;;;;;;5056499;28;20448;-71
2023/12/16 10:32:10;;;;;;;15.45;6.72;;;6.10;99.90;;;;;;5039731;28;20040;-72
2023/12/16 10:34:36;;;;;;;11.07;6.13;;;5.80;99.90;;;;;;5047074;28;20398;-71
2023/12/16 10:37:05;;;;;;;16.13;7.37;;;5.90;99.90;;;;;;5037082;28;20048;-70
2023/12/16 10:39:32;;;;;;;11.90;6.72;;;5.80;99.90;;;;;;5038466;28;20067;-72
2023/12/16 10:41:57;;;;;;;15.15;7.13;;;5.90;99.90;;;;;;5044478;28;20024;-71
2023/12/16 10:44:23;;;;;;;12.43;6.53;;;5.90;99.90;;;;;;5049180;28;20040;-72
2023/12/16 10:46:52;;;;;;;15.57;7.10;;;6.00;99.90;;;;;;5046546;28;20044;-72
2023/12/16 10:49:21;;;;;;;12.82;7.13;;;6.10;99.90;;;;;;5043818;28;20033;-71
2023/12/16 10:51:51;;;;;;;13.57;6.82;;;6.10;99.90;;;;;;5047958;28;20076;-72
2023/12/16 10:54:28;;;;;;;12.50;6.43;;;6.20;99.90;;;;;;5042633;28;20036;-72
2023/12/16 10:57:09;;;;;;;12.43;7.18;;;6.30;99.90;;;;;;5041327;28;20036;-72
2023/12/16 10:59:40;;;;;;;15.63;8.02;;;6.20;99.90;;;;;;5043487;28;20029;-71
2023/12/16 11:02:23;;;;;;;12.07;7.20;;;6.20;99.90;;;;;;5045897;28;20087;-71
2023/12/16 11:04:57;;;;;;;11.13;6.90;;;6.30;99.90;;;;;;5039282;28;20025;-70
2023/12/16 11:07:27;;;;;;;10.65;6.75;;;6.30;99.90;;;;;;5040528;28;20052;-69
2023/12/16 11:09:53;;;;;;;12.63;7.18;;;6.40;99.90;;;;;;5053895;28;20087;-69
2023/12/16 11:12:20;;;;;;;15.82;7.57;;;6.40;99.90;;;;;;5048692;28;20017;-70
2023/12/16 11:14:47;;;;;;;15.75;8.38;;;6.50;99.90;;;;;;5037783;28;20029;-70
2023/12/16 11:17:31;;;;;;;14.15;7.13;;;6.60;99.90;;;;;;5035993;28;20032;-70
2023/12/16 11:20:03;;;;;;;15.48;7.40;;;6.50;99.90;;;;;;5040875;28;20029;-71
2023/12/16 11:22:29;;;;;;;15.35;7.93;;;6.60;99.90;;;;;;5045027;28;20040;-70
2023/12/16 11:24:58;;;;;;;14.80;7.30;;;6.70;99.90;;;;;;5045087;28;20036;-71
2023/12/16 11:27:23;;;;;;;22.85;7.88;;;6.70;99.90;;;;;;5049751;28;20388;-71
2023/12/16 11:29:50;;;;;;;14.13;7.35;;;6.70;99.90;;;;;;5040607;28;20025;-71
2023/12/16 11:32:16;;;;;;;17.60;7.40;;;6.70;99.90;;;;;;5045423;28;20029;-72
2023/12/16 11:34:49;;;;;;;17.88;8.18;;;6.80;99.90;;;;;;5046271;28;20036;-69
2023/12/16 11:37:35;;;;;;;20.88;9.48;;;6.80;99.90;;;;;;5043081;28;20583;-72
2023/12/16 11:40:04;;;;;;;14.23;7.28;;;6.90;99.90;;;;;;5037960;28;20040;-72
2023/12/16 11:42:53;;;;;;;16.70;8.13;;;6.90;99.90;;;;;;5031825;28;20037;-72
2023/12/16 11:45:37;;;;;;;11.27;6.95;;;7.00;99.90;;;;;;5051319;28;20466;-73
2023/12/16 11:48:06;;;;;;;15.88;7.38;;;7.10;99.90;;;;;;5037067;28;20045;-73
2023/12/16 11:50:48;;;;;;;16.50;7.47;;;7.00;99.90;;;;;;5039547;28;20639;-73
2023/12/16 11:53:17;;;;;;;16.17;7.55;;;7.20;99.90;;;;;;5034324;28;20044;-72
2023/12/16 11:55:43;;;;;;;12.90;7.30;;;7.30;99.90;;;;;;5036232;28;20048;-71
2023/12/16 11:58:09;;;;;;;14.35;7.88;;;7.30;99.90;;;;;;5038940;28;20041;-70
2023/12/16 12:00:35;;;;;;;13.23;7.25;;;7.40;99.90;;;;;;5039245;28;20037;-70
2023/12/16 12:03:02;;;;;;;12.60;6.82;;;7.40;99.90;;;;;;5032949;28;20054;-70
2023/12/16 12:05:29;;;;;;;11.32;6.30;;;7.30;99.90;;;;;;5036947;28;20045;-70
2023/12/16 12:07:55;;;;;;;;;;;7.10;99.90;;;;;;5039265;28;20029;-71
2023/12/16 12:10:20;;;;;;;12.77;6.72;;;7.10;99.90;;;;;;5030596;28;19935;-69
2023/12/16 12:12:47;;;;;;;11.20;5.90;;;7.30;99.90;;;;;;5034620;28;20109;-70
2023/12/16 12:15:13;;;;;;;11.90;6.88;;;7.30;99.90;;;;;;5036595;28;20029;-70
2023/12/16 12:17:39;;;;;;;12.07;6.67;;;7.20;99.90;;;;;;5039321;28;20055;-71
2023/12/16 12:20:06;;;;;;;14.00;7.57;;;7.20;99.90;;;;;;5040310;28;20276;-71
2023/12/16 12:22:33;;;;;;;11.77;6.85;;;7.10;99.90;;;;;;5039789;28;20033;-70
2023/12/16 12:24:59;;;;;;;10.07;6.30;;;6.90;99.90;;;;;;5033199;28;20029;-70
2023/12/16 12:27:24;;;;;;;14.13;6.87;;;6.90;99.90;;;;;;5056766;28;20028;-69
2023/12/16 12:29:57;;;;;;;9.73;6.43;;;7.00;99.90;;;;;;5038384;28;20029;-70
2023/12/16 12:32:24;;;;;;;12.43;6.03;;;6.90;99.90;;;;;;5037868;28;20032;-70
2023/12/16 12:35:00;;;;;;;11.88;6.35;;;6.90;99.90;;;;;;5028742;28;20026;-69
2023/12/16 12:37:33;;;;;;;10.35;5.70;;;6.80;99.90;;;;;;5032037;28;20123;-69
2023/12/16 12:39:59;;;;;;;9.75;6.25;;;6.90;99.90;;;;;;5073037;28;20405;-69
2023/12/16 12:42:24;;;;;;;7.37;5.20;;;6.90;99.90;;;;;;5037741;28;20021;-70